createdAt,value
2016-05-20T00:00:31.582Z,90.5
2016-05-20T00:01:31.569Z,89.61
2016-05-20T00:02:31.556Z,90.27
2016-05-20T00:03:31.512Z,90.5
2016-05-20T00:04:31.498Z,90.17
2016-05-20T00:05:31.486Z,90.17
2016-05-20T00:06:31.286Z,90.08
2016-05-20T00:07:31.414Z,90.36
2016-05-20T00:08:31.400Z,90.84
2016-05-20T00:09:31.372Z,90.46
2016-05-20T00:10:31.359Z,90.65
2016-05-20T00:11:31.330Z,90.65
2016-05-20T00:12:31.302Z,90.65
2016-05-20T00:13:31.288Z,90.46
2016-05-20T00:14:31.261Z,90.75
2016-05-20T00:15:31.075Z,90.65
2016-05-20T00:16:31.203Z,90.75
2016-05-20T00:17:31.191Z,91.22
2016-05-20T00:18:31.161Z,91.31
2016-05-20T00:19:31.133Z,91.22
2016-05-20T00:20:31.120Z,91.41
2016-05-20T00:21:30.935Z,91.41
2016-05-20T00:22:31.063Z,91.22
2016-05-20T00:23:31.035Z,91.13
2016-05-20T00:24:31.099Z,91.31
2016-05-20T00:25:30.837Z,91.31
2016-05-20T00:26:30.964Z,91.13
2016-05-20T00:27:30.935Z,91.13
2016-05-20T00:28:30.923Z,91.7
2016-05-20T00:29:30.910Z,91.6
2016-05-20T00:30:30.882Z,91.6
2016-05-20T00:31:30.853Z,91.31
2016-05-20T00:32:30.668Z,90.94
2016-05-20T00:33:30.796Z,91.03
2016-05-20T00:34:30.783Z,91.13
2016-05-20T00:35:30.754Z,91.03
2016-05-20T00:36:30.726Z,91.22
2016-05-20T00:37:30.697Z,91.22
2016-05-20T00:38:30.684Z,91.03
2016-05-20T00:39:30.500Z,90.65
2016-05-20T00:40:30.470Z,90.65
2016-05-20T00:41:30.598Z,90.27
2016-05-20T00:42:30.585Z,90.84
2016-05-20T00:43:30.400Z,90.46
2016-05-20T00:44:30.545Z,90.36
2016-05-20T00:45:30.516Z,90.36
2016-05-20T00:46:30.486Z,90.17
2016-05-20T00:47:30.458Z,90.27
2016-05-20T00:48:30.445Z,90.17
2016-05-20T00:49:30.417Z,90.27
2016-05-20T00:50:30.388Z,90.22
2016-05-20T00:51:30.360Z,89.7
2016-05-20T00:52:30.347Z,89.61
2016-05-20T00:53:30.318Z,89.79
2016-05-20T00:54:30.305Z,89.84
2016-05-20T00:55:30.277Z,89.89
2016-05-20T00:56:30.248Z,89.89
2016-05-20T00:57:30.219Z,89.7
2016-05-20T00:58:30.191Z,89.26
2016-05-20T00:59:30.179Z,89.36
2016-05-20T01:00:30.149Z,88.98
2016-05-20T01:01:30.121Z,89.17
2016-05-20T01:02:30.108Z,88.51
2016-05-20T01:03:29.924Z,88.41
2016-05-20T01:04:30.051Z,88.22
2016-05-20T01:05:30.038Z,88.41
2016-05-20T01:06:29.853Z,88.03
2016-05-20T01:07:29.981Z,87.84
2016-05-20T01:08:29.812Z,87.46
2016-05-20T01:09:29.939Z,87.55
2016-05-20T01:10:29.973Z,87.46
2016-05-20T01:11:29.944Z,87.55
2016-05-20T01:12:29.853Z,86.98
2016-05-20T01:13:29.842Z,87.07
2016-05-20T01:14:29.811Z,86.69
2016-05-20T01:15:29.783Z,86.41
2016-05-20T01:16:29.770Z,86.51
2016-05-20T01:17:29.742Z,86.51
2016-05-20T01:18:29.714Z,86.26
2016-05-20T01:19:29.700Z,86.32
2016-05-20T01:20:29.672Z,86.26
2016-05-20T01:21:29.643Z,86.07
2016-05-20T01:22:29.458Z,85.5
2016-05-20T01:23:29.586Z,85.5
2016-05-20T01:24:29.573Z,85.02
2016-05-20T01:25:29.544Z,85.5
2016-05-20T01:26:29.532Z,85.41
2016-05-20T01:27:29.504Z,85.31
2016-05-20T01:28:29.475Z,85.97
2016-05-20T01:29:29.446Z,84.92
2016-05-20T01:30:29.433Z,85.12
2016-05-20T01:31:29.405Z,85.5
2016-05-20T01:32:29.235Z,85.12
2016-05-20T01:33:29.363Z,85.12
2016-05-20T01:34:29.335Z,85.02
2016-05-20T01:35:29.321Z,85.41
2016-05-20T01:36:29.278Z,84.92
2016-05-20T01:37:29.265Z,84.92
2016-05-20T01:38:29.236Z,85.12
2016-05-20T01:39:29.911Z,85.31
2016-05-20T01:40:29.194Z,84.55
2016-05-20T01:41:29.167Z,84.55
2016-05-20T01:42:29.138Z,84.45
2016-05-20T01:43:29.124Z,84.26
2016-05-20T01:44:29.096Z,84.74
2016-05-20T01:45:29.067Z,84.64
2016-05-20T01:46:29.055Z,84.07
2016-05-20T01:47:29.026Z,84.16
2016-05-20T01:48:28.997Z,84.26
2016-05-20T01:49:28.984Z,84.16
2016-05-20T01:50:28.955Z,83.78
2016-05-20T01:51:28.771Z,83.78
2016-05-20T01:52:28.899Z,84.36
2016-05-20T01:53:28.885Z,83.59
2016-05-20T01:54:29.388Z,83.78
2016-05-20T01:55:28.844Z,83.78
2016-05-20T01:56:28.816Z,83.69
2016-05-20T01:57:28.630Z,83.69
2016-05-20T01:58:28.774Z,83.59
2016-05-20T01:59:28.761Z,83.78
2016-05-20T02:00:28.718Z,83.78
2016-05-20T02:01:28.704Z,83.78
2016-05-20T02:02:28.676Z,83.59
2016-05-20T02:03:28.662Z,83.59
2016-05-20T02:04:28.618Z,83.59
2016-05-20T02:05:28.590Z,83.59
2016-05-20T02:06:28.576Z,83.59
2016-05-20T02:07:28.392Z,83.69
2016-05-20T02:08:28.520Z,83.4
2016-05-20T02:09:28.835Z,83.5
2016-05-20T02:10:28.323Z,83.59
2016-05-20T02:11:28.451Z,83.78
2016-05-20T02:12:28.265Z,83.69
2016-05-20T02:13:28.409Z,83.59
2016-05-20T02:14:28.380Z,83.5
2016-05-20T02:15:28.366Z,83.78
2016-05-20T02:16:28.339Z,84.07
2016-05-20T02:17:28.309Z,84.26
2016-05-20T02:18:28.281Z,83.59
2016-05-20T02:19:28.269Z,83.59
2016-05-20T02:20:28.239Z,83.88
2016-05-20T02:21:28.227Z,83.59
2016-05-20T02:22:28.197Z,83.4
2016-05-20T02:23:28.170Z,83.5
2016-05-20T02:24:28.141Z,83.5
2016-05-20T02:25:28.128Z,83.69
2016-05-20T02:26:28.084Z,83.78
2016-05-20T02:27:28.071Z,83.69
2016-05-20T02:28:28.043Z,83.4
2016-05-20T02:29:28.029Z,83.78
2016-05-20T02:30:28.001Z,83.78
2016-05-20T02:31:27.972Z,83.69
2016-05-20T02:32:27.959Z,83.88
2016-05-20T02:33:27.931Z,84.26
2016-05-20T02:34:27.901Z,83.97
2016-05-20T02:35:27.904Z,83.69
2016-05-20T02:36:27.860Z,83.5
2016-05-20T02:37:27.879Z,84.69
2016-05-20T02:38:27.866Z,83.69
2016-05-20T02:39:27.854Z,83.74
2016-05-20T02:40:27.762Z,84.88
2016-05-20T02:41:27.578Z,84.03
2016-05-20T02:42:27.581Z,83.74
2016-05-20T02:43:27.692Z,84.6
2016-05-20T02:44:27.664Z,84.5
2016-05-20T02:45:27.681Z,85.17
2016-05-20T02:46:27.622Z,85.08
2016-05-20T02:47:27.437Z,85.46
2016-05-20T02:48:27.565Z,85.27
2016-05-20T02:49:27.552Z,84.98
2016-05-20T02:50:27.523Z,85.17
2016-05-20T02:51:27.495Z,85.46
2016-05-20T02:52:27.467Z,85.74
2016-05-20T02:53:27.453Z,85.46
2016-05-20T02:54:27.425Z,85.36
2016-05-20T02:55:27.397Z,84.88
2016-05-20T02:56:27.368Z,85.17
2016-05-20T02:57:27.339Z,85.46
2016-05-20T02:58:27.326Z,85.46
2016-05-20T02:59:27.297Z,85.27
2016-05-20T03:00:27.285Z,85.27
2016-05-20T03:01:27.257Z,85.17
2016-05-20T03:02:27.072Z,85.17
2016-05-20T03:03:27.198Z,85.84
2016-05-20T03:04:27.186Z,85.17
2016-05-20T03:05:27.173Z,85.36
2016-05-20T03:06:27.129Z,85.36
2016-05-20T03:07:27.116Z,85.17
2016-05-20T03:08:27.087Z,85.46
2016-05-20T03:09:26.903Z,85.36
2016-05-20T03:10:27.031Z,85.46
2016-05-20T03:11:27.001Z,85.55
2016-05-20T03:12:26.832Z,85.55
2016-05-20T03:13:26.819Z,85.55
2016-05-20T03:14:26.947Z,85.27
2016-05-20T03:15:26.904Z,85.36
2016-05-20T03:16:26.890Z,85.36
2016-05-20T03:17:26.861Z,85.36
2016-05-20T03:18:26.834Z,85.36
2016-05-20T03:19:26.820Z,85.17
2016-05-20T03:20:26.791Z,85.36
2016-05-20T03:21:26.606Z,85.36
2016-05-20T03:22:26.734Z,85.55
2016-05-20T03:23:26.721Z,85.46
2016-05-20T03:24:26.552Z,85.46
2016-05-20T03:25:26.509Z,85.74
2016-05-20T03:26:26.635Z,85.64
2016-05-20T03:27:26.622Z,85.55
2016-05-20T03:28:26.594Z,86.22
2016-05-20T03:29:26.566Z,86.51
2016-05-20T03:30:26.553Z,85.46
2016-05-20T03:31:26.524Z,85.74
2016-05-20T03:32:26.496Z,86.51
2016-05-20T03:33:26.467Z,85.64
2016-05-20T03:34:26.454Z,86.51
2016-05-20T03:35:26.426Z,86.32
2016-05-20T03:36:26.396Z,86.18
2016-05-20T03:37:26.384Z,86.32
2016-05-20T03:38:26.184Z,86.12
2016-05-20T03:39:26.624Z,86.32
2016-05-20T03:40:26.314Z,86.08
2016-05-20T03:41:26.285Z,86.12
2016-05-20T03:42:26.257Z,86.12
2016-05-20T03:43:26.073Z,86.03
2016-05-20T03:44:26.200Z,86.03
2016-05-20T03:45:26.187Z,86.03
2016-05-20T03:46:26.158Z,86.22
2016-05-20T03:47:26.130Z,86.12
2016-05-20T03:48:26.100Z,86.12
2016-05-20T03:49:26.072Z,86.32
2016-05-20T03:50:26.044Z,86.22
2016-05-20T03:51:26.031Z,86.03
2016-05-20T03:52:26.003Z,86.22
2016-05-20T03:53:25.990Z,86.12
2016-05-20T03:54:25.961Z,85.64
2016-05-20T03:55:25.933Z,85.36
2016-05-20T03:56:25.905Z,85.46
2016-05-20T03:57:25.891Z,85.55
2016-05-20T03:58:25.863Z,85.74
2016-05-20T03:59:25.849Z,85.08
2016-05-20T04:00:25.821Z,85.5
2016-05-20T04:01:25.777Z,84.92
2016-05-20T04:02:25.764Z,85.41
2016-05-20T04:03:25.735Z,85.21
2016-05-20T04:04:25.707Z,84.64
2016-05-20T04:05:25.694Z,84.36
2016-05-20T04:06:25.666Z,83.88
2016-05-20T04:07:25.637Z,83.4
2016-05-20T04:08:25.607Z,82.92
2016-05-20T04:09:25.611Z,82.83
2016-05-20T04:10:25.567Z,82.68
2016-05-20T04:11:25.538Z,82.59
2016-05-20T04:12:25.525Z,82.01
2016-05-20T04:13:25.496Z,81.54
2016-05-20T04:14:25.484Z,81.35
2016-05-20T04:15:25.456Z,81.06
2016-05-20T04:16:25.427Z,81.25
2016-05-20T04:17:25.398Z,80.96
2016-05-20T04:18:25.385Z,80.96
2016-05-20T04:19:25.357Z,81.35
2016-05-20T04:20:25.328Z,81.63
2016-05-20T04:21:25.315Z,81.44
2016-05-20T04:22:25.286Z,81.25
2016-05-20T04:23:25.258Z,81.54
2016-05-20T04:24:25.198Z,81.63
2016-05-20T04:25:25.216Z,81.44
2016-05-20T04:26:25.188Z,81.54
2016-05-20T04:27:25.158Z,81.63
2016-05-20T04:28:25.146Z,81.54
2016-05-20T04:29:25.181Z,82.01
2016-05-20T04:30:25.105Z,81.82
2016-05-20T04:31:25.077Z,81.92
2016-05-20T04:32:25.063Z,81.73
2016-05-20T04:33:25.019Z,81.82
2016-05-20T04:34:25.007Z,81.44
2016-05-20T04:35:24.977Z,81.06
2016-05-20T04:36:24.965Z,81.15
2016-05-20T04:37:24.935Z,81.54
2016-05-20T04:38:24.924Z,81.58
2016-05-20T04:39:25.130Z,81.86
2016-05-20T04:40:24.866Z,81.67
2016-05-20T04:41:24.838Z,81.77
2016-05-20T04:42:24.824Z,81.77
2016-05-20T04:43:24.796Z,81.29
2016-05-20T04:44:24.784Z,81.58
2016-05-20T04:45:24.754Z,81.01
2016-05-20T04:46:24.726Z,81.38
2016-05-20T04:47:24.697Z,80.81
2016-05-20T04:48:24.684Z,80.81
2016-05-20T04:49:24.656Z,81.01
2016-05-20T04:50:24.658Z,80.72
2016-05-20T04:51:24.615Z,80.43
2016-05-20T04:52:24.586Z,81.04
2016-05-20T04:53:24.573Z,80.33
2016-05-20T04:54:24.561Z,80.72
2016-05-20T04:55:24.531Z,80.38
2016-05-20T04:56:24.502Z,80.38
2016-05-20T04:57:24.474Z,80.85
2016-05-20T04:58:24.461Z,80.66
2016-05-20T04:59:24.433Z,80.19
2016-05-20T05:00:24.404Z,80.19
2016-05-20T05:01:24.392Z,80.09
2016-05-20T05:02:24.362Z,79.9
2016-05-20T05:03:24.177Z,80.09
2016-05-20T05:04:24.322Z,79.9
2016-05-20T05:05:24.293Z,79.61
2016-05-20T05:06:24.280Z,79.8
2016-05-20T05:07:24.251Z,79.43
2016-05-20T05:08:24.223Z,79.23
2016-05-20T05:09:24.054Z,79.23
2016-05-20T05:10:24.181Z,78.99
2016-05-20T05:11:24.152Z,78.51
2016-05-20T05:12:24.139Z,78.6
2016-05-20T05:13:24.126Z,78.31
2016-05-20T05:14:24.082Z,78.22
2016-05-20T05:15:24.070Z,78.41
2016-05-20T05:16:24.057Z,77.94
2016-05-20T05:17:23.872Z,77.74
2016-05-20T05:18:24.000Z,77.84
2016-05-20T05:19:23.987Z,77.78
2016-05-20T05:20:23.959Z,77.4
2016-05-20T05:21:23.789Z,77.3
2016-05-20T05:22:23.916Z,77.01
2016-05-20T05:23:23.889Z,77.21
2016-05-20T05:24:23.906Z,77.11
2016-05-20T05:25:23.846Z,77.11
2016-05-20T05:26:23.833Z,77.3
2016-05-20T05:27:23.820Z,77.11
2016-05-20T05:28:23.792Z,76.64
2016-05-20T05:29:23.780Z,76.29
2016-05-20T05:30:23.735Z,76.1
2016-05-20T05:31:23.722Z,76.1
2016-05-20T05:32:23.709Z,75.81
2016-05-20T05:33:23.681Z,75.14
2016-05-20T05:34:23.496Z,74.95
2016-05-20T05:35:23.639Z,74.95
2016-05-20T05:36:23.626Z,74.76
2016-05-20T05:37:23.597Z,74.8
2016-05-20T05:38:23.569Z,74.51
2016-05-20T05:39:23.634Z,74.22
2016-05-20T05:40:23.528Z,74.04
2016-05-20T05:41:23.515Z,74.13
2016-05-20T05:42:23.485Z,74.04
2016-05-20T05:43:23.470Z,73.69
2016-05-20T05:44:23.443Z,72.83
2016-05-20T05:45:23.428Z,72.34
2016-05-20T05:46:23.401Z,72.06
2016-05-20T05:47:23.371Z,71.62
2016-05-20T05:48:23.359Z,71.81
2016-05-20T05:49:23.345Z,71.42
2016-05-20T05:50:23.334Z,70.95
2016-05-20T05:51:23.304Z,70.89
2016-05-20T05:52:23.292Z,70.6
2016-05-20T05:53:23.262Z,71.27
2016-05-20T05:54:23.250Z,71.62
2016-05-20T05:55:23.222Z,71.33
2016-05-20T05:56:23.192Z,72.06
2016-05-20T05:57:23.196Z,72.34
2016-05-20T05:58:23.167Z,73.02
2016-05-20T05:59:23.167Z,73.4
2016-05-20T06:00:23.183Z,72.83
2016-05-20T06:01:23.199Z,72.79
2016-05-20T06:02:23.075Z,73.17
2016-05-20T06:03:23.247Z,73.46
2016-05-20T06:04:23.269Z,74.04
2016-05-20T06:05:23.257Z,74.41
2016-05-20T06:06:23.261Z,74.8
2016-05-20T06:07:23.248Z,74.99
2016-05-20T06:08:23.252Z,74.22
2016-05-20T06:09:23.549Z,74.8
2016-05-20T06:10:23.229Z,74.9
2016-05-20T06:11:23.221Z,74.7
2016-05-20T06:12:23.199Z,74.61
2016-05-20T06:13:23.176Z,74.8
2016-05-20T06:14:23.167Z,74.7
2016-05-20T06:15:23.141Z,74.32
2016-05-20T06:16:23.129Z,74.04
2016-05-20T06:17:23.103Z,74.7
2016-05-20T06:18:23.092Z,73.4
2016-05-20T06:19:23.082Z,74.22
2016-05-20T06:20:23.052Z,74.74
2016-05-20T06:21:23.057Z,74.99
2016-05-20T06:22:26.091Z,75.18
2016-05-20T06:23:25.252Z,74.99
2016-05-20T06:24:25.646Z,75.18
2016-05-20T06:25:25.726Z,76.42
2016-05-20T06:26:26.152Z,76.81
2016-05-20T06:27:26.858Z,77.38
2016-05-20T06:28:24.376Z,78.14
2016-05-20T06:29:22.973Z,78.2
2016-05-20T06:30:22.850Z,78.14
2016-05-20T06:31:22.822Z,78.34
2016-05-20T06:32:22.809Z,77.38
2016-05-20T06:33:22.797Z,78.34
2016-05-20T06:34:22.767Z,78.14
2016-05-20T06:35:22.755Z,78.43
2016-05-20T06:36:22.726Z,78.24
2016-05-20T06:37:22.542Z,79.49
2016-05-20T06:38:22.685Z,78.68
2016-05-20T06:39:22.672Z,78.78
2016-05-20T06:40:22.644Z,78.78
2016-05-20T06:41:22.614Z,79.1
2016-05-20T06:42:22.601Z,79.16
2016-05-20T06:43:22.589Z,78.81
2016-05-20T06:44:22.388Z,79.96
2016-05-20T06:45:22.532Z,79.77
2016-05-20T06:46:22.518Z,80.44
2016-05-20T06:47:22.490Z,80.5
2016-05-20T06:48:22.462Z,80.25
2016-05-20T06:49:22.448Z,80.02
2016-05-20T06:50:22.420Z,80.3
2016-05-20T06:51:22.407Z,80.5
2016-05-20T06:52:22.379Z,80.73
2016-05-20T06:53:22.350Z,80.06
2016-05-20T06:54:22.337Z,79.77
2016-05-20T06:55:22.684Z,80.16
2016-05-20T06:56:22.296Z,79.87
2016-05-20T06:57:22.282Z,80.16
2016-05-20T06:58:24.707Z,80.44
2016-05-20T06:59:24.617Z,80.44
2016-05-20T07:00:23.665Z,81.11
2016-05-20T07:01:22.200Z,80.82
2016-05-20T07:02:22.187Z,80.82
2016-05-20T07:03:22.158Z,79.96
2016-05-20T07:04:22.130Z,79.29
2016-05-20T07:05:22.100Z,78.81
2016-05-20T07:06:22.088Z,78.81
2016-05-20T07:07:21.903Z,79.58
2016-05-20T07:08:22.047Z,78.28
2016-05-20T07:09:22.033Z,78.09
2016-05-20T07:10:21.989Z,78.47
2016-05-20T07:11:21.977Z,78.19
2016-05-20T07:12:21.964Z,77.8
2016-05-20T07:13:21.950Z,77.33
2016-05-20T07:14:21.922Z,76.75
2016-05-20T07:15:21.910Z,76.94
2016-05-20T07:16:21.881Z,77.61
2016-05-20T07:17:21.852Z,78.09
2016-05-20T07:18:21.839Z,78.19
2016-05-20T07:19:21.827Z,77.51
2016-05-20T07:20:21.798Z,77.61
2016-05-20T07:21:21.768Z,77.99
2016-05-20T07:22:21.756Z,77.8
2016-05-20T07:23:21.571Z,77.8
2016-05-20T07:24:21.715Z,77.51
2016-05-20T07:25:21.701Z,77.04
2016-05-20T07:26:21.689Z,77.8
2016-05-20T07:27:21.660Z,77.42
2016-05-20T07:28:21.632Z,77.04
2016-05-20T07:29:21.650Z,77.23
2016-05-20T07:30:21.590Z,77.04
2016-05-20T07:31:21.578Z,76.4
2016-05-20T07:32:21.549Z,75.83
2016-05-20T07:33:21.536Z,76.18
2016-05-20T07:34:21.507Z,75.83
2016-05-20T07:35:21.495Z,75.35
2016-05-20T07:36:21.466Z,75.12
2016-05-20T07:37:21.452Z,75.26
2016-05-20T07:38:21.424Z,75.35
2016-05-20T07:39:21.411Z,75.45
2016-05-20T07:40:21.383Z,75.35
2016-05-20T07:41:21.369Z,75.45
2016-05-20T07:42:21.341Z,74.87
2016-05-20T07:43:21.328Z,75.07
2016-05-20T07:44:21.300Z,75.16
2016-05-20T07:45:21.318Z,74.97
2016-05-20T07:46:21.274Z,75.22
2016-05-20T07:47:21.246Z,75.54
2016-05-20T07:48:21.232Z,75.31
2016-05-20T07:49:21.204Z,75.54
2016-05-20T07:50:21.175Z,76.02
2016-05-20T07:51:21.163Z,75.12
2016-05-20T07:52:21.697Z,75.7
2016-05-20T07:53:20.964Z,76.08
2016-05-20T07:54:21.107Z,75.26
2016-05-20T07:55:20.938Z,76.12
2016-05-20T07:56:21.051Z,76.08
2016-05-20T07:57:20.897Z,75.79
2016-05-20T07:58:21.025Z,75.98
2016-05-20T07:59:20.996Z,75.51
2016-05-20T08:00:20.984Z,75.51
2016-05-20T08:01:21.454Z,75.16
2016-05-20T08:02:20.942Z,75.83
2016-05-20T08:03:20.929Z,75.93
2016-05-20T08:04:20.916Z,76.5
2016-05-20T08:05:20.887Z,76.12
2016-05-20T08:06:20.859Z,76.21
2016-05-20T08:07:20.830Z,75.83
2016-05-20T08:08:20.817Z,75.64
2016-05-20T08:09:20.648Z,75.83
2016-05-20T08:10:20.808Z,75.93
2016-05-20T08:11:20.778Z,76.02
2016-05-20T08:12:20.750Z,75.35
2016-05-20T08:13:20.722Z,75.26
2016-05-20T08:14:20.536Z,74.62
2016-05-20T08:15:20.664Z,73.66
2016-05-20T08:16:20.667Z,74.05
2016-05-20T08:17:37.297Z,73.19
2016-05-20T08:18:20.454Z,72.84
2016-05-20T08:19:20.597Z,72.94
2016-05-20T08:20:29.740Z,72.07
2016-05-20T08:21:20.555Z,71.15
2016-05-20T08:22:21.371Z,70.76
2016-05-20T08:23:20.513Z,70.38
2016-05-20T08:24:20.501Z,69.17
2016-05-20T08:25:30.488Z,68.69
2016-05-20T08:26:20.538Z,68.69
2016-05-20T08:27:20.290Z,67.83
2016-05-20T08:28:20.418Z,67.86
2016-05-20T08:29:20.248Z,68.59
2016-05-20T08:30:23.173Z,68.69
2016-05-20T08:31:20.364Z,68.59
2016-05-20T08:32:20.350Z,68.88
2016-05-20T08:33:20.182Z,68.02
2016-05-20T08:34:22.028Z,67.63
2016-05-20T08:35:31.906Z,67.25
2016-05-20T08:36:20.283Z,67.25
2016-05-20T08:37:22.114Z,66.77
2016-05-20T08:38:20.242Z,66.67
2016-05-20T08:39:20.228Z,66.96
2016-05-20T08:40:20.216Z,66.8
2016-05-20T08:41:20.187Z,65.84
2016-05-20T08:42:20.019Z,65.01
2016-05-20T08:43:20.147Z,64.53
2016-05-20T08:44:20.117Z,64.28
2016-05-20T08:45:20.104Z,63.6
2016-05-20T08:46:20.091Z,63.02
2016-05-20T08:47:20.078Z,62.93
2016-05-20T08:48:20.050Z,63.32
2016-05-20T08:49:19.881Z,63.12
2016-05-20T08:50:20.024Z,62.93
2016-05-20T08:51:19.855Z,63.12
2016-05-20T08:52:19.999Z,62.38
2016-05-20T08:53:19.969Z,62.19
2016-05-20T08:54:19.957Z,62.29
2016-05-20T08:55:20.412Z,61.71
2016-05-20T08:56:19.916Z,60.66
2016-05-20T08:57:19.902Z,60.75
2016-05-20T08:58:19.873Z,62.1
2016-05-20T08:59:19.861Z,61.78
2016-05-20T09:00:19.863Z,61.68
2016-05-20T09:01:19.835Z,62.26
2016-05-20T09:02:19.822Z,62.55
2016-05-20T09:03:19.793Z,62.26
2016-05-20T09:04:19.781Z,62.07
2016-05-20T09:05:19.768Z,61.78
2016-05-20T09:06:19.754Z,61.01
2016-05-20T09:07:19.725Z,62.38
2016-05-20T09:08:19.714Z,61.87
2016-05-20T09:09:19.700Z,63.41
2016-05-20T09:10:19.953Z,63.38
2016-05-20T09:11:19.675Z,63.57
2016-05-20T09:12:19.489Z,64.05
2016-05-20T09:13:19.742Z,63.86
2016-05-20T09:14:19.605Z,65.2
2016-05-20T09:15:19.591Z,65.75
2016-05-20T09:16:19.563Z,66.71
2016-05-20T09:17:19.394Z,67.57
2016-05-20T09:18:20.803Z,67.63
2016-05-20T09:19:19.525Z,67.73
2016-05-20T09:20:19.496Z,68.02
2016-05-20T09:21:19.483Z,68.21
2016-05-20T09:22:19.297Z,69.36
2016-05-20T09:23:19.441Z,69.33
2016-05-20T09:24:19.428Z,68.95
2016-05-20T09:25:19.243Z,68.59
2016-05-20T09:26:19.262Z,70.03
2016-05-20T09:27:19.373Z,69.9
2016-05-20T09:28:19.346Z,70.67
2016-05-20T09:29:19.332Z,70.96
2016-05-20T09:30:19.319Z,70.57
2016-05-20T09:31:19.151Z,70.76
2016-05-20T09:32:19.293Z,70.86
2016-05-20T09:33:19.265Z,70.38
2016-05-20T09:34:19.252Z,70.86
2016-05-20T09:35:19.254Z,69.74
2016-05-20T09:36:19.054Z,69.9
2016-05-20T09:37:19.181Z,69.46
2016-05-20T09:38:19.169Z,69.74
2016-05-20T09:39:19.187Z,69.46
2016-05-20T09:40:19.517Z,69.74
2016-05-20T09:41:19.114Z,70.13
2016-05-20T09:42:18.930Z,70.23
2016-05-20T09:43:19.073Z,70.03
2016-05-20T09:44:20.389Z,70.32
2016-05-20T09:45:19.031Z,70.03
2016-05-20T09:46:19.019Z,70.61
2016-05-20T09:47:19.005Z,69.56
2016-05-20T09:48:18.961Z,70.13
2016-05-20T09:49:19.839Z,70.13
2016-05-20T09:50:18.936Z,70.42
2016-05-20T09:51:19.922Z,70.13
2016-05-20T09:52:18.894Z,69.65
2016-05-20T09:53:18.881Z,68.79
2016-05-20T09:54:19.524Z,68.88
2016-05-20T09:55:18.746Z,69.26
2016-05-20T09:56:18.826Z,69.17
2016-05-20T09:57:18.642Z,69.36
2016-05-20T09:58:18.785Z,69.46
2016-05-20T09:59:18.943Z,70.03
2016-05-20T10:00:18.743Z,70.42
2016-05-20T10:01:18.731Z,71.34
2016-05-20T10:02:18.718Z,71.53
2016-05-20T10:03:18.690Z,72.59
2016-05-20T10:04:20.098Z,72.39
2016-05-20T10:05:18.663Z,71.72
2016-05-20T10:06:18.635Z,71.57
2016-05-20T10:07:18.623Z,71.37
2016-05-20T10:08:18.593Z,71.72
2016-05-20T10:09:19.362Z,71.37
2016-05-20T10:10:18.567Z,70.9
2016-05-20T10:11:18.539Z,70.7
2016-05-20T10:12:18.526Z,71.86
2016-05-20T10:13:18.497Z,70.42
2016-05-20T10:14:18.500Z,70.13
2016-05-20T10:15:18.472Z,69.65
2016-05-20T10:16:18.442Z,70.13
2016-05-20T10:17:18.430Z,70.61
2016-05-20T10:18:18.402Z,70.03
2016-05-20T10:19:18.404Z,70.51
2016-05-20T10:20:18.375Z,70.99
2016-05-20T10:21:18.347Z,70.36
2016-05-20T10:22:18.333Z,70.45
2016-05-20T10:23:18.149Z,71.37
2016-05-20T10:24:18.324Z,71.28
2016-05-20T10:25:18.327Z,70.99
2016-05-20T10:26:18.266Z,70.9
2016-05-20T10:27:18.301Z,70.8
2016-05-20T10:28:18.224Z,71.89
2016-05-20T10:29:18.196Z,72.14
2016-05-20T10:30:18.184Z,72.14
2016-05-20T10:31:18.171Z,72.37
2016-05-20T10:32:17.985Z,71.98
2016-05-20T10:33:18.129Z,73.1
2016-05-20T10:34:18.116Z,72.72
2016-05-20T10:35:18.088Z,72.63
2016-05-20T10:36:18.075Z,72.18
2016-05-20T10:37:18.062Z,72.18
2016-05-20T10:38:18.034Z,72.53
2016-05-20T10:39:18.161Z,72.18
2016-05-20T10:40:18.164Z,72.24
2016-05-20T10:41:17.885Z,72.33
2016-05-20T10:42:17.809Z,72.43
2016-05-20T10:43:17.782Z,72.63
2016-05-20T10:44:17.939Z,72.24
2016-05-20T10:45:17.756Z,72.14
2016-05-20T10:46:17.899Z,70.99
2016-05-20T10:47:17.870Z,71.22
2016-05-20T10:48:17.858Z,69.78
2016-05-20T10:49:17.829Z,68.66
2016-05-20T10:50:17.816Z,69.24
2016-05-20T10:51:17.802Z,68.37
2016-05-20T10:52:17.775Z,69.05
2016-05-20T10:53:17.605Z,68.85
2016-05-20T10:54:17.749Z,69.05
2016-05-20T10:55:17.735Z,68.76
2016-05-20T10:56:17.707Z,69.14
2016-05-20T10:57:17.694Z,68.85
2016-05-20T10:58:17.666Z,68.28
2016-05-20T10:59:17.716Z,67.54
2016-05-20T11:00:17.639Z,67.35
2016-05-20T11:01:17.626Z,67.25
2016-05-20T11:02:17.598Z,66.97
2016-05-20T11:03:17.585Z,66.68
2016-05-20T11:04:17.557Z,66.77
2016-05-20T11:05:17.653Z,66.77
2016-05-20T11:06:17.593Z,67.83
2016-05-20T11:07:17.518Z,67.74
2016-05-20T11:08:17.489Z,67.9
2016-05-20T11:09:17.320Z,67.41
2016-05-20T11:10:17.307Z,67.25
2016-05-20T11:11:17.341Z,66.84
2016-05-20T11:12:17.423Z,67.83
2016-05-20T11:13:17.409Z,67.99
2016-05-20T11:14:17.395Z,67.99
2016-05-20T11:15:17.383Z,67.61
2016-05-20T11:16:17.354Z,67.99
2016-05-20T11:17:17.576Z,67.99
2016-05-20T11:18:17.406Z,67.41
2016-05-20T11:19:17.206Z,68.57
2016-05-20T11:20:17.287Z,69.05
2016-05-20T11:21:17.274Z,68.95
2016-05-20T11:22:17.245Z,70.2
2016-05-20T11:23:17.326Z,70.2
2016-05-20T11:24:17.219Z,69.43
2016-05-20T11:25:17.207Z,68.28
2016-05-20T11:26:17.178Z,68.12
2016-05-20T11:27:17.149Z,67.74
2016-05-20T11:28:17.230Z,67.61
2016-05-20T11:29:17.124Z,67.54
2016-05-20T11:30:16.955Z,67.35
2016-05-20T11:31:17.083Z,67.64
2016-05-20T11:32:17.069Z,68.02
2016-05-20T11:33:17.057Z,67.9
2016-05-20T11:34:17.043Z,68.12
2016-05-20T11:35:17.015Z,67.32
2016-05-20T11:36:16.846Z,68.08
2016-05-20T11:37:17.020Z,68.47
2016-05-20T11:38:16.960Z,68.66
2016-05-20T11:39:16.947Z,68.85
2016-05-20T11:40:16.934Z,68.66
2016-05-20T11:41:16.906Z,70.01
2016-05-20T11:42:16.909Z,70.64
2016-05-20T11:43:16.880Z,70.84
2016-05-20T11:44:16.852Z,71.98
2016-05-20T11:45:16.839Z,72.85
2016-05-20T11:46:16.825Z,73.72
2016-05-20T11:47:16.641Z,73.87
2016-05-20T11:48:16.784Z,74.48
2016-05-20T11:49:16.756Z,73.33
2016-05-20T11:50:16.742Z,73.04
2016-05-20T11:51:16.731Z,71.98
2016-05-20T11:52:16.716Z,71.45
2016-05-20T11:53:16.688Z,71.06
2016-05-20T11:54:16.675Z,71.45
2016-05-20T11:55:16.928Z,70.78
2016-05-20T11:56:16.634Z,70.1
2016-05-20T11:57:16.621Z,70.04
2016-05-20T11:58:16.608Z,69.85
2016-05-20T11:59:16.595Z,68.89
2016-05-20T12:00:16.566Z,68.12
2016-05-20T12:01:16.554Z,68.12
2016-05-20T12:02:16.541Z,68.06
2016-05-20T12:03:16.512Z,68.06
2016-05-20T12:04:16.499Z,67.96
2016-05-20T12:05:16.471Z,68.92
2016-05-20T12:06:16.473Z,69.08
2016-05-20T12:07:16.445Z,69.37
2016-05-20T12:08:16.275Z,70.14
2016-05-20T12:09:16.419Z,70.68
2016-05-20T12:10:16.406Z,70.01
2016-05-20T12:11:16.377Z,70.97
2016-05-20T12:12:16.349Z,71.55
2016-05-20T12:13:16.352Z,71.55
2016-05-20T12:14:16.323Z,71.51
2016-05-20T12:15:16.309Z,71.16
2016-05-20T12:16:16.281Z,71.16
2016-05-20T12:17:16.268Z,71.55
2016-05-20T12:18:16.256Z,72.6
2016-05-20T12:19:16.227Z,73.62
2016-05-20T12:20:16.214Z,74.62
2016-05-20T12:21:16.200Z,74.48
2016-05-20T12:22:16.172Z,73.94
2016-05-20T12:23:16.159Z,74.04
2016-05-20T12:24:16.147Z,74.39
2016-05-20T12:25:15.962Z,74.19
2016-05-20T12:26:16.105Z,74.58
2016-05-20T12:27:16.092Z,75.25
2016-05-20T12:28:15.908Z,75.54
2016-05-20T12:29:15.894Z,74.96
2016-05-20T12:30:15.882Z,74.96
2016-05-20T12:31:16.025Z,75.35
2016-05-20T12:32:15.840Z,75.15
2016-05-20T12:33:15.983Z,75.35
2016-05-20T12:34:15.971Z,76.02
2016-05-20T12:35:15.958Z,75.98
2016-05-20T12:36:15.929Z,75.89
2016-05-20T12:37:15.901Z,76.21
2016-05-20T12:38:15.731Z,77.51
2016-05-20T12:39:15.875Z,78.86
2016-05-20T12:40:15.846Z,81.16
2016-05-20T12:41:15.848Z,81.41
2016-05-20T12:42:15.805Z,82.65
2016-05-20T12:43:15.792Z,82.65
2016-05-20T12:44:15.779Z,83.04
2016-05-20T12:45:15.750Z,83.23
2016-05-20T12:46:15.737Z,82.85
2016-05-20T12:47:15.708Z,82.85
2016-05-20T12:48:15.570Z,82.46
2016-05-20T12:49:15.667Z,81.93
2016-05-20T12:50:15.654Z,82.6
2016-05-20T12:51:15.642Z,82.03
2016-05-20T12:52:15.612Z,81.64
2016-05-20T12:53:15.615Z,81.45
2016-05-20T12:54:15.587Z,80.68
2016-05-20T12:55:15.590Z,80.24